Accueil
METAR-TAF:

METAR-TAF

Aéroports :

Balikesir, Turquie

latitude: 39-37N, longitude: 027-55E, altitude: 101 m

Observation

Le bulletin a été fait il y a 35 minutes, à 04:50 UTC
Vent calme
Température 19°C
Humidité 94%
Pression 1013 hPa
Visibilité: 8000 m
Nuages épars à une hauteur de 3500 ft

METAR: LTBF 220450Z 00000KT 8000 SCT035 19/18 Q1013 NOSIG

Heure: 08:25 (05:25 UTC)

Prévision

Le bulletin a été fait il y a 3 heures et 45 minutes, à 01:40 UTC
Prévision valable du 22 à 03 UTC au 22 à 12 UTC
Vent 2 kt de direction variable
Visibilité 10 km ou plus
Nuages épars à une hauteur de 3500 ft
Nuages épars à une hauteur de 10000 ft

TAF: LTBF 220140Z 2203/2212 VRB02KT 9999 SCT035 SCT100

Observations et prévisions météorologiques de plus de 4000 aéroports (messages METAR et TAF).

Les stations disponibles sont représentées par des disques jaunes et rouges sur la carte.

Passer la souris dessus pour voir le nom de la station.

Cliquer dessus pour voir les observations et prévisions météorologiques.

Pour changer de carte: cliquez sur les boutons verts avec une croix noire pour zoomer, sur le bouton vert avec un tiret pour effectuer un zoom arrière, ou sur les flèches vertes pour les cartes adjacentes.


METAR-TAF: